sensor_id;sensor_type;location;lat;lon;timestamp;P1;durP1;ratioP1;P2;durP2;ratioP2
54795;SDS011;40693;43.884;20.340;2023-03-20T00:01:20;73.30;;;45.53;;
54795;SDS011;40693;43.884;20.340;2023-03-20T00:03:52;79.10;;;48.30;;
54795;SDS011;40693;43.884;20.340;2023-03-20T00:06:19;96.07;;;60.30;;
54795;SDS011;40693;43.884;20.340;2023-03-20T00:08:50;89.78;;;53.28;;
54795;SDS011;40693;43.884;20.340;2023-03-20T00:14:00;106.78;;;63.28;;
54795;SDS011;40693;43.884;20.340;2023-03-20T00:16:35;109.43;;;63.28;;
54795;SDS011;40693;43.884;20.340;2023-03-20T00:19:06;103.70;;;58.08;;
54795;SDS011;40693;43.884;20.340;2023-03-20T00:21:41;90.97;;;50.38;;
54795;SDS011;40693;43.884;20.340;2023-03-20T00:24:07;77.88;;;48.85;;
54795;SDS011;40693;43.884;20.340;2023-03-20T00:26:33;86.85;;;49.65;;
54795;SDS011;40693;43.884;20.340;2023-03-20T00:29:01;85.95;;;50.53;;
54795;SDS011;40693;43.884;20.340;2023-03-20T00:31:29;92.13;;;52.50;;
54795;SDS011;40693;43.884;20.340;2023-03-20T00:33:58;94.72;;;51.97;;
54795;SDS011;40693;43.884;20.340;2023-03-20T00:36:26;90.18;;;50.17;;
54795;SDS011;40693;43.884;20.340;2023-03-20T00:38:52;88.93;;;52.60;;
54795;SDS011;40693;43.884;20.340;2023-03-20T00:44:32;84.45;;;52.10;;
54795;SDS011;40693;43.884;20.340;2023-03-20T00:47:04;94.68;;;52.63;;
54795;SDS011;40693;43.884;20.340;2023-03-20T00:49:35;96.00;;;53.15;;
54795;SDS011;40693;43.884;20.340;2023-03-20T00:52:04;102.57;;;58.05;;
54795;SDS011;40693;43.884;20.340;2023-03-20T00:54:30;93.75;;;55.10;;
54795;SDS011;40693;43.884;20.340;2023-03-20T00:56:58;72.60;;;45.75;;
54795;SDS011;40693;43.884;20.340;2023-03-20T00:59:27;79.65;;;46.33;;
54795;SDS011;40693;43.884;20.340;2023-03-20T01:01:59;81.85;;;47.50;;
54795;SDS011;40693;43.884;20.340;2023-03-20T01:04:32;75.57;;;42.45;;
54795;SDS011;40693;43.884;20.340;2023-03-20T01:07:06;73.32;;;41.83;;
54795;SDS011;40693;43.884;20.340;2023-03-20T01:09:37;71.80;;;42.22;;
54795;SDS011;40693;43.884;20.340;2023-03-20T01:12:04;77.22;;;45.72;;
54795;SDS011;40693;43.884;20.340;2023-03-20T01:14:39;65.75;;;40.20;;
54795;SDS011;40693;43.884;20.340;2023-03-20T01:17:08;65.82;;;39.60;;
54795;SDS011;40693;43.884;20.340;2023-03-20T01:19:41;72.40;;;42.78;;
54795;SDS011;40693;43.884;20.340;2023-03-20T01:22:07;137.10;;;73.25;;
54795;SDS011;40693;43.884;20.340;2023-03-20T01:24:33;107.25;;;61.30;;
54795;SDS011;40693;43.884;20.340;2023-03-20T01:26:59;97.40;;;50.83;;
54795;SDS011;40693;43.884;20.340;2023-03-20T01:29:28;78.22;;;46.10;;
54795;SDS011;40693;43.884;20.340;2023-03-20T01:31:59;67.82;;;38.50;;
54795;SDS011;40693;43.884;20.340;2023-03-20T01:34:25;62.17;;;37.90;;
54795;SDS011;40693;43.884;20.340;2023-03-20T01:36:52;71.93;;;39.20;;
54795;SDS011;40693;43.884;20.340;2023-03-20T01:39:20;74.50;;;40.65;;
54795;SDS011;40693;43.884;20.340;2023-03-20T01:41:48;69.82;;;37.70;;
54795;SDS011;40693;43.884;20.340;2023-03-20T01:44:18;68.82;;;39.33;;
54795;SDS011;40693;43.884;20.340;2023-03-20T01:46:44;57.25;;;37.33;;
54795;SDS011;40693;43.884;20.340;2023-03-20T01:51:48;59.17;;;36.15;;
54795;SDS011;40693;43.884;20.340;2023-03-20T01:54:19;59.75;;;35.97;;
54795;SDS011;40693;43.884;20.340;2023-03-20T01:56:49;58.53;;;35.30;;
54795;SDS011;40693;43.884;20.340;2023-03-20T01:59:17;56.17;;;33.50;;
54795;SDS011;40693;43.884;20.340;2023-03-20T02:01:58;55.08;;;31.55;;
54795;SDS011;40693;43.884;20.340;2023-03-20T02:04:29;55.10;;;33.65;;
54795;SDS011;40693;43.884;20.340;2023-03-20T02:06:58;57.90;;;35.03;;
54795;SDS011;40693;43.884;20.340;2023-03-20T02:09:27;49.08;;;29.98;;
54795;SDS011;40693;43.884;20.340;2023-03-20T02:11:53;48.15;;;30.70;;
54795;SDS011;40693;43.884;20.340;2023-03-20T02:14:21;109.45;;;59.38;;
54795;SDS011;40693;43.884;20.340;2023-03-20T02:16:47;78.55;;;42.08;;
54795;SDS011;40693;43.884;20.340;2023-03-20T02:19:20;51.88;;;32.63;;
54795;SDS011;40693;43.884;20.340;2023-03-20T02:52:24;81.30;;;44.78;;
54795;SDS011;40693;43.884;20.340;2023-03-20T02:55:31;81.43;;;46.10;;
54795;SDS011;40693;43.884;20.340;2023-03-20T03:00:39;53.30;;;31.80;;
54795;SDS011;40693;43.884;20.340;2023-03-20T03:06:35;76.22;;;45.10;;
54795;SDS011;40693;43.884;20.340;2023-03-20T03:14:51;67.25;;;41.35;;
54795;SDS011;40693;43.884;20.340;2023-03-20T03:17:25;70.00;;;37.85;;
54795;SDS011;40693;43.884;20.340;2023-03-20T03:19:57;67.18;;;36.47;;
54795;SDS011;40693;43.884;20.340;2023-03-20T03:22:32;49.78;;;31.67;;
54795;SDS011;40693;43.884;20.340;2023-03-20T03:25:03;63.88;;;38.50;;
54795;SDS011;40693;43.884;20.340;2023-03-20T03:27:33;71.90;;;41.72;;
54795;SDS011;40693;43.884;20.340;2023-03-20T03:30:06;59.47;;;34.63;;
54795;SDS011;40693;43.884;20.340;2023-03-20T03:32:49;51.80;;;30.75;;
54795;SDS011;40693;43.884;20.340;2023-03-20T03:35:45;56.83;;;33.13;;
54795;SDS011;40693;43.884;20.340;2023-03-20T03:47:16;49.17;;;28.55;;
54795;SDS011;40693;43.884;20.340;2023-03-20T03:49:49;48.92;;;29.45;;
54795;SDS011;40693;43.884;20.340;2023-03-20T03:52:19;49.92;;;29.70;;
54795;SDS011;40693;43.884;20.340;2023-03-20T03:54:52;47.63;;;29.10;;
54795;SDS011;40693;43.884;20.340;2023-03-20T03:57:44;47.10;;;27.27;;
54795;SDS011;40693;43.884;20.340;2023-03-20T04:00:16;37.67;;;26.90;;
54795;SDS011;40693;43.884;20.340;2023-03-20T04:02:45;43.20;;;26.35;;
54795;SDS011;40693;43.884;20.340;2023-03-20T04:05:20;40.95;;;26.27;;
54795;SDS011;40693;43.884;20.340;2023-03-20T04:08:01;52.25;;;28.05;;
54795;SDS011;40693;43.884;20.340;2023-03-20T04:10:30;38.78;;;25.33;;
54795;SDS011;40693;43.884;20.340;2023-03-20T04:12:56;45.33;;;25.60;;
54795;SDS011;40693;43.884;20.340;2023-03-20T04:15:22;41.33;;;24.83;;
54795;SDS011;40693;43.884;20.340;2023-03-20T04:17:51;46.58;;;24.88;;
54795;SDS011;40693;43.884;20.340;2023-03-20T04:20:18;37.85;;;24.15;;
54795;SDS011;40693;43.884;20.340;2023-03-20T04:22:44;41.80;;;24.33;;
54795;SDS011;40693;43.884;20.340;2023-03-20T04:25:21;41.38;;;24.50;;
54795;SDS011;40693;43.884;20.340;2023-03-20T04:27:48;42.10;;;22.73;;
54795;SDS011;40693;43.884;20.340;2023-03-20T04:30:15;47.97;;;23.98;;
54795;SDS011;40693;43.884;20.340;2023-03-20T04:32:43;40.95;;;24.40;;
54795;SDS011;40693;43.884;20.340;2023-03-20T04:35:12;41.88;;;24.83;;
54795;SDS011;40693;43.884;20.340;2023-03-20T04:37:40;47.22;;;30.13;;
54795;SDS011;40693;43.884;20.340;2023-03-20T04:40:06;41.38;;;25.27;;
54795;SDS011;40693;43.884;20.340;2023-03-20T04:42:32;39.47;;;25.05;;
54795;SDS011;40693;43.884;20.340;2023-03-20T04:44:58;46.08;;;29.27;;
54795;SDS011;40693;43.884;20.340;2023-03-20T04:47:24;44.97;;;30.23;;
54795;SDS011;40693;43.884;20.340;2023-03-20T04:49:50;43.47;;;29.27;;
54795;SDS011;40693;43.884;20.340;2023-03-20T04:52:16;42.10;;;25.33;;
54795;SDS011;40693;43.884;20.340;2023-03-20T04:54:42;46.38;;;26.75;;
54795;SDS011;40693;43.884;20.340;2023-03-20T04:57:07;50.00;;;27.77;;
54795;SDS011;40693;43.884;20.340;2023-03-20T04:59:33;41.10;;;27.25;;
54795;SDS011;40693;43.884;20.340;2023-03-20T05:01:59;48.35;;;29.45;;
54795;SDS011;40693;43.884;20.340;2023-03-20T05:04:25;58.00;;;33.38;;
54795;SDS011;40693;43.884;20.340;2023-03-20T05:06:51;58.63;;;37.13;;
54795;SDS011;40693;43.884;20.340;2023-03-20T05:09:17;61.85;;;36.90;;
54795;SDS011;40693;43.884;20.340;2023-03-20T05:11:43;63.22;;;38.17;;
54795;SDS011;40693;43.884;20.340;2023-03-20T05:14:10;60.05;;;36.33;;
54795;SDS011;40693;43.884;20.340;2023-03-20T05:16:39;73.97;;;42.00;;
54795;SDS011;40693;43.884;20.340;2023-03-20T05:19:07;78.10;;;45.40;;
54795;SDS011;40693;43.884;20.340;2023-03-20T05:21:33;62.78;;;39.80;;
54795;SDS011;40693;43.884;20.340;2023-03-20T05:23:59;62.60;;;40.22;;
54795;SDS011;40693;43.884;20.340;2023-03-20T05:26:25;67.45;;;39.85;;
54795;SDS011;40693;43.884;20.340;2023-03-20T05:28:53;61.92;;;38.42;;
54795;SDS011;40693;43.884;20.340;2023-03-20T05:31:35;64.90;;;42.60;;
54795;SDS011;40693;43.884;20.340;2023-03-20T05:34:01;65.03;;;40.05;;
54795;SDS011;40693;43.884;20.340;2023-03-20T05:36:27;59.95;;;39.83;;
54795;SDS011;40693;43.884;20.340;2023-03-20T05:38:53;61.22;;;37.38;;
54795;SDS011;40693;43.884;20.340;2023-03-20T05:41:22;61.58;;;38.00;;
54795;SDS011;40693;43.884;20.340;2023-03-20T05:43:48;67.60;;;41.03;;
54795;SDS011;40693;43.884;20.340;2023-03-20T05:46:16;64.95;;;41.10;;
54795;SDS011;40693;43.884;20.340;2023-03-20T05:48:42;72.88;;;44.78;;
54795;SDS011;40693;43.884;20.340;2023-03-20T05:51:08;68.93;;;46.38;;
54795;SDS011;40693;43.884;20.340;2023-03-20T05:53:35;74.25;;;43.90;;
54795;SDS011;40693;43.884;20.340;2023-03-20T05:56:00;71.82;;;44.60;;
54795;SDS011;40693;43.884;20.340;2023-03-20T05:58:26;67.28;;;42.83;;
54795;SDS011;40693;43.884;20.340;2023-03-20T06:00:56;61.03;;;38.47;;
54795;SDS011;40693;43.884;20.340;2023-03-20T06:03:22;63.88;;;40.08;;
54795;SDS011;40693;43.884;20.340;2023-03-20T06:05:48;51.25;;;32.33;;
54795;SDS011;40693;43.884;20.340;2023-03-20T06:08:14;49.15;;;31.50;;
54795;SDS011;40693;43.884;20.340;2023-03-20T06:10:40;42.45;;;26.05;;
54795;SDS011;40693;43.884;20.340;2023-03-20T06:13:06;41.95;;;21.70;;
54795;SDS011;40693;43.884;20.340;2023-03-20T06:15:32;30.17;;;19.48;;
54795;SDS011;40693;43.884;20.340;2023-03-20T06:18:03;34.92;;;21.70;;
54795;SDS011;40693;43.884;20.340;2023-03-20T06:20:29;36.35;;;23.13;;
54795;SDS011;40693;43.884;20.340;2023-03-20T06:22:55;43.58;;;28.15;;
54795;SDS011;40693;43.884;20.340;2023-03-20T06:25:21;66.13;;;31.67;;
54795;SDS011;40693;43.884;20.340;2023-03-20T06:27:47;51.97;;;32.17;;
54795;SDS011;40693;43.884;20.340;2023-03-20T06:30:22;55.60;;;33.15;;
54795;SDS011;40693;43.884;20.340;2023-03-20T06:35:22;73.38;;;41.88;;
54795;SDS011;40693;43.884;20.340;2023-03-20T06:37:57;72.30;;;46.50;;
54795;SDS011;40693;43.884;20.340;2023-03-20T06:40:23;75.18;;;46.35;;
54795;SDS011;40693;43.884;20.340;2023-03-20T06:42:51;75.18;;;46.38;;
54795;SDS011;40693;43.884;20.340;2023-03-20T06:45:17;61.35;;;42.10;;
54795;SDS011;40693;43.884;20.340;2023-03-20T06:47:43;62.63;;;38.40;;
54795;SDS011;40693;43.884;20.340;2023-03-20T06:50:11;54.40;;;33.40;;
54795;SDS011;40693;43.884;20.340;2023-03-20T06:52:40;56.38;;;34.95;;
54795;SDS011;40693;43.884;20.340;2023-03-20T06:55:09;65.43;;;38.35;;
54795;SDS011;40693;43.884;20.340;2023-03-20T06:57:35;66.05;;;41.75;;
54795;SDS011;40693;43.884;20.340;2023-03-20T07:00:06;71.38;;;45.65;;
54795;SDS011;40693;43.884;20.340;2023-03-20T07:02:34;80.78;;;48.55;;
54795;SDS011;40693;43.884;20.340;2023-03-20T07:05:00;76.03;;;43.25;;
54795;SDS011;40693;43.884;20.340;2023-03-20T07:07:29;78.90;;;43.60;;
54795;SDS011;40693;43.884;20.340;2023-03-20T07:09:55;67.50;;;39.47;;
54795;SDS011;40693;43.884;20.340;2023-03-20T07:12:21;65.95;;;41.28;;
54795;SDS011;40693;43.884;20.340;2023-03-20T07:14:50;69.65;;;41.92;;
54795;SDS011;40693;43.884;20.340;2023-03-20T07:17:16;76.43;;;44.70;;
54795;SDS011;40693;43.884;20.340;2023-03-20T07:19:41;77.85;;;47.90;;
54795;SDS011;40693;43.884;20.340;2023-03-20T07:22:13;89.38;;;57.95;;
54795;SDS011;40693;43.884;20.340;2023-03-20T07:24:46;86.60;;;51.25;;
54795;SDS011;40693;43.884;20.340;2023-03-20T07:27:12;77.47;;;43.30;;
54795;SDS011;40693;43.884;20.340;2023-03-20T07:29:38;64.75;;;39.47;;
54795;SDS011;40693;43.884;20.340;2023-03-20T07:32:05;87.97;;;51.00;;
54795;SDS011;40693;43.884;20.340;2023-03-20T07:34:30;70.10;;;43.80;;
54795;SDS011;40693;43.884;20.340;2023-03-20T07:36:56;68.00;;;39.40;;
54795;SDS011;40693;43.884;20.340;2023-03-20T07:39:22;56.08;;;37.28;;
54795;SDS011;40693;43.884;20.340;2023-03-20T07:41:51;60.65;;;38.15;;
54795;SDS011;40693;43.884;20.340;2023-03-20T07:44:16;65.45;;;40.38;;
54795;SDS011;40693;43.884;20.340;2023-03-20T07:49:38;64.63;;;38.22;;
54795;SDS011;40693;43.884;20.340;2023-03-20T07:52:09;67.85;;;38.67;;
54795;SDS011;40693;43.884;20.340;2023-03-20T07:54:35;54.80;;;35.00;;
54795;SDS011;40693;43.884;20.340;2023-03-20T07:57:01;56.00;;;35.72;;
54795;SDS011;40693;43.884;20.340;2023-03-20T07:59:29;72.28;;;40.13;;
54795;SDS011;40693;43.884;20.340;2023-03-20T08:01:55;65.07;;;36.38;;
54795;SDS011;40693;43.884;20.340;2023-03-20T08:04:21;53.42;;;35.42;;
54795;SDS011;40693;43.884;20.340;2023-03-20T08:06:50;58.72;;;35.65;;
54795;SDS011;40693;43.884;20.340;2023-03-20T08:09:16;53.40;;;33.58;;
54795;SDS011;40693;43.884;20.340;2023-03-20T08:11:42;52.42;;;34.92;;
54795;SDS011;40693;43.884;20.340;2023-03-20T08:14:08;59.85;;;33.88;;
54795;SDS011;40693;43.884;20.340;2023-03-20T08:16:34;51.60;;;32.17;;
54795;SDS011;40693;43.884;20.340;2023-03-20T08:19:00;55.88;;;34.33;;
54795;SDS011;40693;43.884;20.340;2023-03-20T08:21:28;61.28;;;36.70;;
54795;SDS011;40693;43.884;20.340;2023-03-20T08:23:57;51.00;;;33.95;;
54795;SDS011;40693;43.884;20.340;2023-03-20T08:26:24;50.10;;;34.22;;
54795;SDS011;40693;43.884;20.340;2023-03-20T08:28:52;67.60;;;37.13;;
54795;SDS011;40693;43.884;20.340;2023-03-20T08:31:18;54.92;;;34.20;;
54795;SDS011;40693;43.884;20.340;2023-03-20T08:33:44;54.53;;;33.33;;
54795;SDS011;40693;43.884;20.340;2023-03-20T08:36:10;53.72;;;28.85;;
54795;SDS011;40693;43.884;20.340;2023-03-20T08:38:37;65.43;;;39.05;;
54795;SDS011;40693;43.884;20.340;2023-03-20T08:41:04;65.93;;;37.50;;
54795;SDS011;40693;43.884;20.340;2023-03-20T08:43:33;59.58;;;36.90;;
54795;SDS011;40693;43.884;20.340;2023-03-20T08:46:00;53.03;;;34.08;;
54795;SDS011;40693;43.884;20.340;2023-03-20T08:48:26;58.30;;;34.75;;
54795;SDS011;40693;43.884;20.340;2023-03-20T08:50:52;52.92;;;32.45;;
54795;SDS011;40693;43.884;20.340;2023-03-20T08:53:19;48.72;;;29.63;;
54795;SDS011;40693;43.884;20.340;2023-03-20T08:55:48;52.15;;;32.88;;
54795;SDS011;40693;43.884;20.340;2023-03-20T08:58:16;54.67;;;32.08;;
54795;SDS011;40693;43.884;20.340;2023-03-20T09:00:43;50.63;;;33.08;;
54795;SDS011;40693;43.884;20.340;2023-03-20T09:03:12;55.78;;;34.63;;
54795;SDS011;40693;43.884;20.340;2023-03-20T09:05:43;50.28;;;33.70;;
54795;SDS011;40693;43.884;20.340;2023-03-20T09:08:10;45.58;;;29.23;;
54795;SDS011;40693;43.884;20.340;2023-03-20T09:10:36;43.50;;;27.08;;
54795;SDS011;40693;43.884;20.340;2023-03-20T09:13:02;44.17;;;24.25;;
54795;SDS011;40693;43.884;20.340;2023-03-20T09:15:28;41.65;;;23.67;;
54795;SDS011;40693;43.884;20.340;2023-03-20T09:17:54;36.92;;;21.52;;
54795;SDS011;40693;43.884;20.340;2023-03-20T09:20:20;36.33;;;22.92;;
54795;SDS011;40693;43.884;20.340;2023-03-20T09:22:46;31.92;;;18.67;;
54795;SDS011;40693;43.884;20.340;2023-03-20T09:25:12;28.30;;;18.50;;
54795;SDS011;40693;43.884;20.340;2023-03-20T09:27:37;28.52;;;17.42;;
54795;SDS011;40693;43.884;20.340;2023-03-20T09:30:04;27.77;;;18.20;;
54795;SDS011;40693;43.884;20.340;2023-03-20T09:32:31;22.90;;;16.35;;
54795;SDS011;40693;43.884;20.340;2023-03-20T09:34:58;18.38;;;12.75;;
54795;SDS011;40693;43.884;20.340;2023-03-20T09:37:25;23.65;;;12.75;;
54795;SDS011;40693;43.884;20.340;2023-03-20T09:39:51;24.92;;;13.95;;
54795;SDS011;40693;43.884;20.340;2023-03-20T09:45:04;16.98;;;11.13;;
54795;SDS011;40693;43.884;20.340;2023-03-20T09:47:44;18.92;;;11.68;;
54795;SDS011;40693;43.884;20.340;2023-03-20T09:50:38;16.23;;;10.80;;
54795;SDS011;40693;43.884;20.340;2023-03-20T09:53:21;21.38;;;16.58;;
54795;SDS011;40693;43.884;20.340;2023-03-20T09:55:54;14.25;;;10.68;;
54795;SDS011;40693;43.884;20.340;2023-03-20T09:58:34;20.35;;;13.70;;
54795;SDS011;40693;43.884;20.340;2023-03-20T10:01:02;19.35;;;13.52;;
54795;SDS011;40693;43.884;20.340;2023-03-20T10:06:19;14.18;;;10.38;;
54795;SDS011;40693;43.884;20.340;2023-03-20T10:08:45;17.02;;;10.10;;
54795;SDS011;40693;43.884;20.340;2023-03-20T10:30:48;15.73;;;10.95;;
54795;SDS011;40693;43.884;20.340;2023-03-20T10:33:44;14.38;;;11.60;;
54795;SDS011;40693;43.884;20.340;2023-03-20T10:38:56;15.68;;;10.15;;
54795;SDS011;40693;43.884;20.340;2023-03-20T10:41:31;16.85;;;10.40;;
54795;SDS011;40693;43.884;20.340;2023-03-20T10:44:01;17.67;;;10.82;;
54795;SDS011;40693;43.884;20.340;2023-03-20T10:46:29;15.10;;;10.90;;
54795;SDS011;40693;43.884;20.340;2023-03-20T10:49:06;16.10;;;9.90;;
54795;SDS011;40693;43.884;20.340;2023-03-20T10:51:47;13.63;;;8.85;;
54795;SDS011;40693;43.884;20.340;2023-03-20T10:54:33;14.30;;;9.18;;
54795;SDS011;40693;43.884;20.340;2023-03-20T10:57:04;12.88;;;9.57;;
54795;SDS011;40693;43.884;20.340;2023-03-20T10:59:42;17.65;;;9.10;;
54795;SDS011;40693;43.884;20.340;2023-03-20T11:02:14;16.15;;;11.10;;
54795;SDS011;40693;43.884;20.340;2023-03-20T11:04:41;20.73;;;14.75;;
54795;SDS011;40693;43.884;20.340;2023-03-20T11:10:13;18.20;;;11.32;;
54795;SDS011;40693;43.884;20.340;2023-03-20T11:12:42;16.60;;;10.73;;
54795;SDS011;40693;43.884;20.340;2023-03-20T11:15:20;12.85;;;9.93;;
54795;SDS011;40693;43.884;20.340;2023-03-20T11:18:04;12.65;;;9.15;;
54795;SDS011;40693;43.884;20.340;2023-03-20T11:20:37;15.98;;;12.38;;
54795;SDS011;40693;43.884;20.340;2023-03-20T11:23:16;14.65;;;10.25;;
54795;SDS011;40693;43.884;20.340;2023-03-20T11:25:57;15.38;;;11.35;;
54795;SDS011;40693;43.884;20.340;2023-03-20T11:33:50;10.25;;;7.93;;
54795;SDS011;40693;43.884;20.340;2023-03-20T11:36:28;10.52;;;7.05;;
54795;SDS011;40693;43.884;20.340;2023-03-20T11:39:01;12.73;;;8.25;;
54795;SDS011;40693;43.884;20.340;2023-03-20T11:41:31;12.98;;;8.43;;
54795;SDS011;40693;43.884;20.340;2023-03-20T11:43:57;10.70;;;8.60;;
54795;SDS011;40693;43.884;20.340;2023-03-20T11:46:24;13.07;;;7.80;;
54795;SDS011;40693;43.884;20.340;2023-03-20T11:49:43;11.70;;;9.63;;
54795;SDS011;40693;43.884;20.340;2023-03-20T11:51:48;11.77;;;9.10;;
54795;SDS011;40693;43.884;20.340;2023-03-20T11:54:15;11.30;;;7.97;;
54795;SDS011;40693;43.884;20.340;2023-03-20T11:56:54;13.38;;;8.93;;
54795;SDS011;40693;43.884;20.340;2023-03-20T11:59:24;13.65;;;8.63;;
54795;SDS011;40693;43.884;20.340;2023-03-20T12:02:02;12.60;;;7.95;;
54795;SDS011;40693;43.884;20.340;2023-03-20T12:07:10;11.88;;;7.70;;
54795;SDS011;40693;43.884;20.340;2023-03-20T12:09:45;11.20;;;8.23;;
54795;SDS011;40693;43.884;20.340;2023-03-20T12:15:21;14.23;;;8.57;;
54795;SDS011;40693;43.884;20.340;2023-03-20T12:17:59;10.48;;;7.70;;
54795;SDS011;40693;43.884;20.340;2023-03-20T12:25:43;10.18;;;7.30;;
54795;SDS011;40693;43.884;20.340;2023-03-20T12:33:51;12.68;;;7.93;;
54795;SDS011;40693;43.884;20.340;2023-03-20T12:36:23;11.30;;;7.78;;
54795;SDS011;40693;43.884;20.340;2023-03-20T12:38:55;10.23;;;7.85;;
54795;SDS011;40693;43.884;20.340;2023-03-20T12:41:22;10.90;;;7.68;;
54795;SDS011;40693;43.884;20.340;2023-03-20T12:46:53;9.73;;;7.47;;
54795;SDS011;40693;43.884;20.340;2023-03-20T13:00:02;10.75;;;7.70;;
54795;SDS011;40693;43.884;20.340;2023-03-20T13:08:02;13.18;;;8.20;;
54795;SDS011;40693;43.884;20.340;2023-03-20T13:10:39;12.00;;;8.02;;
54795;SDS011;40693;43.884;20.340;2023-03-20T13:18:37;12.80;;;8.10;;
54795;SDS011;40693;43.884;20.340;2023-03-20T13:21:09;10.30;;;8.00;;
54795;SDS011;40693;43.884;20.340;2023-03-20T13:27:26;11.75;;;8.25;;
54795;SDS011;40693;43.884;20.340;2023-03-20T13:32:16;10.63;;;7.78;;
54795;SDS011;40693;43.884;20.340;2023-03-20T13:45:09;11.30;;;7.50;;
54795;SDS011;40693;43.884;20.340;2023-03-20T13:48:47;10.10;;;7.53;;
54795;SDS011;40693;43.884;20.340;2023-03-20T14:07:43;12.00;;;7.68;;
54795;SDS011;40693;43.884;20.340;2023-03-20T14:12:55;17.52;;;10.75;;
54795;SDS011;40693;43.884;20.340;2023-03-20T14:15:30;17.02;;;10.88;;
54795;SDS011;40693;43.884;20.340;2023-03-20T14:17:57;12.02;;;9.27;;
54795;SDS011;40693;43.884;20.340;2023-03-20T14:20:36;14.18;;;8.48;;
54795;SDS011;40693;43.884;20.340;2023-03-20T14:23:04;16.63;;;9.57;;
54795;SDS011;40693;43.884;20.340;2023-03-20T14:25:35;13.20;;;8.40;;
54795;SDS011;40693;43.884;20.340;2023-03-20T14:30:49;15.60;;;8.60;;
54795;SDS011;40693;43.884;20.340;2023-03-20T14:40:57;12.68;;;8.50;;
54795;SDS011;40693;43.884;20.340;2023-03-20T14:51:44;11.27;;;8.80;;
54795;SDS011;40693;43.884;20.340;2023-03-20T14:54:33;13.23;;;8.98;;
54795;SDS011;40693;43.884;20.340;2023-03-20T14:57:08;12.45;;;8.40;;
54795;SDS011;40693;43.884;20.340;2023-03-20T14:59:41;10.90;;;8.25;;
54795;SDS011;40693;43.884;20.340;2023-03-20T15:02:17;13.43;;;8.60;;
54795;SDS011;40693;43.884;20.340;2023-03-20T15:04:55;14.07;;;10.88;;
54795;SDS011;40693;43.884;20.340;2023-03-20T15:07:22;15.45;;;10.40;;
54795;SDS011;40693;43.884;20.340;2023-03-20T15:09:59;17.35;;;11.88;;
54795;SDS011;40693;43.884;20.340;2023-03-20T15:12:28;15.20;;;11.38;;
54795;SDS011;40693;43.884;20.340;2023-03-20T15:15:02;19.48;;;10.60;;
54795;SDS011;40693;43.884;20.340;2023-03-20T15:17:38;17.83;;;11.75;;
54795;SDS011;40693;43.884;20.340;2023-03-20T15:22:56;15.37;;;11.37;;
54795;SDS011;40693;43.884;20.340;2023-03-20T15:25:41;16.40;;;10.85;;
54795;SDS011;40693;43.884;20.340;2023-03-20T15:28:32;17.42;;;11.05;;
54795;SDS011;40693;43.884;20.340;2023-03-20T15:31:01;19.50;;;13.35;;
54795;SDS011;40693;43.884;20.340;2023-03-20T15:36:19;17.20;;;12.23;;
54795;SDS011;40693;43.884;20.340;2023-03-20T15:38:56;27.00;;;20.17;;
54795;SDS011;40693;43.884;20.340;2023-03-20T15:41:32;31.67;;;22.10;;
54795;SDS011;40693;43.884;20.340;2023-03-20T15:46:57;22.83;;;14.73;;
54795;SDS011;40693;43.884;20.340;2023-03-20T15:49:29;21.42;;;14.65;;
54795;SDS011;40693;43.884;20.340;2023-03-20T15:51:57;20.73;;;13.55;;
54795;SDS011;40693;43.884;20.340;2023-03-20T15:54:26;18.02;;;12.10;;
54795;SDS011;40693;43.884;20.340;2023-03-20T15:56:53;19.05;;;12.80;;
54795;SDS011;40693;43.884;20.340;2023-03-20T15:59:24;15.18;;;12.63;;
54795;SDS011;40693;43.884;20.340;2023-03-20T16:01:55;23.98;;;14.70;;
54795;SDS011;40693;43.884;20.340;2023-03-20T16:04:22;19.98;;;13.75;;
54795;SDS011;40693;43.884;20.340;2023-03-20T16:06:52;17.80;;;11.13;;
54795;SDS011;40693;43.884;20.340;2023-03-20T16:09:21;21.17;;;12.68;;
54795;SDS011;40693;43.884;20.340;2023-03-20T16:11:53;14.35;;;10.75;;
54795;SDS011;40693;43.884;20.340;2023-03-20T16:14:24;25.38;;;16.40;;
54795;SDS011;40693;43.884;20.340;2023-03-20T16:16:56;20.70;;;12.13;;
54795;SDS011;40693;43.884;20.340;2023-03-20T16:19:24;20.10;;;12.88;;
54795;SDS011;40693;43.884;20.340;2023-03-20T16:21:55;19.63;;;13.45;;
54795;SDS011;40693;43.884;20.340;2023-03-20T16:24:26;19.33;;;13.63;;
54795;SDS011;40693;43.884;20.340;2023-03-20T16:26:53;25.60;;;16.70;;
54795;SDS011;40693;43.884;20.340;2023-03-20T16:29:21;27.73;;;16.77;;
54795;SDS011;40693;43.884;20.340;2023-03-20T16:31:54;21.65;;;15.13;;
54795;SDS011;40693;43.884;20.340;2023-03-20T16:34:24;24.73;;;16.63;;
54795;SDS011;40693;43.884;20.340;2023-03-20T16:39:28;73.15;;;41.47;;
54795;SDS011;40693;43.884;20.340;2023-03-20T16:41:56;90.20;;;59.90;;
54795;SDS011;40693;43.884;20.340;2023-03-20T16:44:41;83.72;;;50.83;;
54795;SDS011;40693;43.884;20.340;2023-03-20T16:50:02;87.25;;;59.70;;
54795;SDS011;40693;43.884;20.340;2023-03-20T16:52:44;109.72;;;64.75;;
54795;SDS011;40693;43.884;20.340;2023-03-20T16:55:20;50.08;;;33.88;;
54795;SDS011;40693;43.884;20.340;2023-03-20T16:57:50;70.18;;;47.15;;
54795;SDS011;40693;43.884;20.340;2023-03-20T17:00:25;86.72;;;60.13;;
54795;SDS011;40693;43.884;20.340;2023-03-20T17:06:08;100.40;;;58.28;;
54795;SDS011;40693;43.884;20.340;2023-03-20T17:08:41;70.45;;;48.67;;
54795;SDS011;40693;43.884;20.340;2023-03-20T17:11:35;70.50;;;49.47;;
54795;SDS011;40693;43.884;20.340;2023-03-20T17:14:03;73.28;;;51.58;;
54795;SDS011;40693;43.884;20.340;2023-03-20T17:16:30;71.35;;;52.28;;
54795;SDS011;40693;43.884;20.340;2023-03-20T17:19:03;59.22;;;41.50;;
54795;SDS011;40693;43.884;20.340;2023-03-20T17:21:42;79.70;;;59.08;;
54795;SDS011;40693;43.884;20.340;2023-03-20T17:24:10;57.65;;;40.25;;
54795;SDS011;40693;43.884;20.340;2023-03-20T17:26:37;68.18;;;46.65;;
54795;SDS011;40693;43.884;20.340;2023-03-20T17:29:05;70.60;;;48.53;;
54795;SDS011;40693;43.884;20.340;2023-03-20T17:31:33;74.15;;;50.50;;
54795;SDS011;40693;43.884;20.340;2023-03-20T17:34:11;75.10;;;50.75;;
54795;SDS011;40693;43.884;20.340;2023-03-20T17:36:40;69.22;;;45.65;;
54795;SDS011;40693;43.884;20.340;2023-03-20T17:39:06;71.30;;;45.00;;
54795;SDS011;40693;43.884;20.340;2023-03-20T17:41:45;65.80;;;45.95;;
54795;SDS011;40693;43.884;20.340;2023-03-20T17:44:12;65.20;;;44.00;;
54795;SDS011;40693;43.884;20.340;2023-03-20T17:46:40;64.00;;;44.13;;
54795;SDS011;40693;43.884;20.340;2023-03-20T17:49:10;54.30;;;37.38;;
54795;SDS011;40693;43.884;20.340;2023-03-20T17:51:39;54.67;;;37.67;;
54795;SDS011;40693;43.884;20.340;2023-03-20T17:54:05;73.70;;;48.35;;
54795;SDS011;40693;43.884;20.340;2023-03-20T17:56:33;75.55;;;51.03;;
54795;SDS011;40693;43.884;20.340;2023-03-20T17:59:01;87.13;;;61.67;;
54795;SDS011;40693;43.884;20.340;2023-03-20T18:01:55;98.05;;;67.65;;
54795;SDS011;40693;43.884;20.340;2023-03-20T18:04:23;90.45;;;57.45;;